FW6728 Nanaimo CA current weather conditions

sailwx.info

Wind from 090 at 0 knots gusting 1

Air temperature 15.6° C
Dewpoint 12.5° C

Last reported at 2020-Jul-08 03:55 UTC.
Time now 2020-Jul-08 05:13 UTC

Location: N 49°10' W 124°00'.
View on Google Maps.

See reports from other nearby stations

  
Tides and Currents Weather Stations Pressure Air Temp Water Temp Dewpoint Dewpoint Depression Visibility Wind Speed Wind Dir Waves Ship Positions
date/time (UTC)wind fromknots sea level pressurealtimeterstation pressurevisibilityair tempwater tempwave heightnotes
2020-Jul-08 03:55 090 0 gusting 1 15.6
2020-Jul-08 03:45 15.6
2020-Jul-08 03:35 15.6
2020-Jul-08 03:25 202 0 gusting 1 15.6
2020-Jul-08 03:15 112 0 gusting 1 15.6
2020-Jul-08 03:05 16.1
2020-Jul-08 02:55 090 1 gusting 4 16.1
2020-Jul-08 02:45 090 2 gusting 5 16.1
2020-Jul-08 02:35 090 1 gusting 5 16.1
2020-Jul-08 02:25 090 2 gusting 5 16.1
2020-Jul-08 02:15 090 1 gusting 4 16.7
2020-Jul-08 02:05 090 4 gusting 6 17.2
2020-Jul-08 01:55 090 2 gusting 6 17.2
2020-Jul-08 01:45 090 3 gusting 5 17.2
2020-Jul-08 01:35 090 2 gusting 6 16.7
2020-Jul-08 01:25 135 2 gusting 7 17.2
2020-Jul-08 01:15 090 2 gusting 6 17.2
2020-Jul-08 01:05 090 2 gusting 6 17.2
2020-Jul-08 00:55 112 1 gusting 5 17.2
2020-Jul-08 00:45 135 1 gusting 3 17.2
2020-Jul-08 00:35 112 0 gusting 2 17.2
2020-Jul-08 00:25 090 1 gusting 5 17.2
2020-Jul-08 00:15 067 2 gusting 5 16.7
2020-Jul-08 00:05 090 3 gusting 6 17.2
2020-Jul-07 23:55 090 0 gusting 4 16.7
2020-Jul-07 23:45 090 1 gusting 4 16.1
2020-Jul-07 23:35 090 1 gusting 5 16.1
2020-Jul-07 23:25 090 1 gusting 3 15.6
2020-Jul-07 23:15 090 1 gusting 3 15.6
2020-Jul-07 23:05 15.6
2020-Jul-07 22:55 090 1 gusting 4 15.6
2020-Jul-07 22:45 225 0 gusting 1 16.1
2020-Jul-07 22:35 090 1 gusting 3 16.1
2020-Jul-07 22:25 090 1 gusting 5 16.1
2020-Jul-07 22:15 090 3 gusting 6 16.1
2020-Jul-07 22:05 16.7
2020-Jul-07 21:55 112 0 gusting 2 16.7
2020-Jul-07 21:45 225 0 gusting 3 16.1
2020-Jul-07 21:35 090 2 gusting 5 15.6
2020-Jul-07 21:25 112 0 gusting 2 16.1
2020-Jul-07 21:05 135 0 gusting 2 15.6
2020-Jul-07 20:55 112 1 gusting 4 15.0
2020-Jul-07 20:45 067 0 gusting 2 15.0
2020-Jul-07 20:35 090 0 gusting 1 15.0
2020-Jul-07 20:25 135 0 gusting 1 14.4
2020-Jul-07 17:05 337 0 gusting 1 12.8
2020-Jul-07 16:55 022 0 gusting 1 12.8
2020-Jul-07 16:45 12.8
2020-Jul-07 16:35 337 0 gusting 1 12.8
2020-Jul-07 16:25 12.8
2020-Jul-07 16:15 12.8
2020-Jul-07 16:05 12.8
2020-Jul-07 13:15 13.3
2020-Jul-07 13:05 13.3
2020-Jul-07 12:55 13.3
2020-Jul-07 12:45 13.3
2020-Jul-07 12:35 13.3
2020-Jul-07 12:25 13.9
2020-Jul-07 12:15 13.3
2020-Jul-07 12:05 13.3
2020-Jul-07 11:55 045 0 gusting 1 13.3
2020-Jul-07 11:45 13.9
2020-Jul-07 11:35 13.3
2020-Jul-07 11:25 13.3
2020-Jul-07 11:15 13.3
2020-Jul-07 11:05 13.9
2020-Jul-07 10:55 13.9
2020-Jul-07 10:45 13.9
2020-Jul-07 10:35 13.9
2020-Jul-07 10:25 13.9
2020-Jul-07 10:15 14.4
2020-Jul-07 10:05 14.4
2020-Jul-07 09:55 14.4
2020-Jul-07 09:45 14.4
2020-Jul-07 09:35 14.4
2020-Jul-07 09:25 14.4
2020-Jul-07 09:15 14.4
2020-Jul-07 09:05 14.4
2020-Jul-07 08:55 14.4
2020-Jul-07 08:45 14.4
2020-Jul-07 08:35 14.4
2020-Jul-07 08:25 14.4
2020-Jul-07 08:15 13.9
2020-Jul-07 08:05 13.9
2020-Jul-07 07:55 13.9
2020-Jul-07 07:45 14.4
2020-Jul-07 07:35 14.4
2020-Jul-07 07:25 14.4
2020-Jul-07 07:15 14.4
2020-Jul-07 07:05 14.4
2020-Jul-07 06:55 14.4
2020-Jul-07 06:45 14.4
2020-Jul-07 06:35 14.4
2020-Jul-07 06:25 14.4
2020-Jul-07 06:15 14.4
2020-Jul-07 06:05 14.4
2020-Jul-07 05:55 14.4
2020-Jul-07 05:45 14.4
2020-Jul-07 05:35 14.4
2020-Jul-07 05:25 14.4
2020-Jul-07 05:15 14.4
2020-Jul-07 05:05 15.0
2020-Jul-07 04:55 15.0
2020-Jul-07 04:45 15.0
2020-Jul-07 04:35 15.6
2020-Jul-07 04:25 15.6
2020-Jul-07 04:15 15.6
2020-Jul-07 04:05 16.1
2020-Jul-07 03:55 16.7
2020-Jul-07 03:45 16.7
2020-Jul-07 03:35 16.7
2020-Jul-07 03:25 090 0 gusting 2 16.7
2020-Jul-07 03:15 17.2
2020-Jul-07 03:05 17.2
2020-Jul-07 02:55 090 0 gusting 1 17.2
2020-Jul-07 02:45 067 0 gusting 2 17.2
2020-Jul-07 02:35 090 0 gusting 1 17.2
2020-Jul-07 02:25 17.2
2020-Jul-07 02:15 112 0 gusting 2 17.2
2020-Jul-07 02:05 17.2
2020-Jul-07 01:55 202 0 gusting 1 17.2
2020-Jul-07 01:45 17.2
2020-Jul-07 01:35 17.2
2020-Jul-07 01:25 17.8
2020-Jul-07 01:15 17.8
2020-Jul-07 01:05 045 0 gusting 1 17.8
2020-Jul-07 00:55 045 0 gusting 1 17.8
2020-Jul-07 00:45 022 0 gusting 2 17.8
2020-Jul-07 00:35 292 0 gusting 2 17.8
2020-Jul-07 00:25 270 0 gusting 2 17.8
2020-Jul-07 00:15 315 1 gusting 3 17.8
2020-Jul-07 00:05 270 0 gusting 2 17.8
2020-Jul-06 23:55 270 1 gusting 4 17.8
2020-Jul-06 23:45 270 1 gusting 4 17.8
2020-Jul-06 23:35 247 1 gusting 5 17.8
2020-Jul-06 23:25 18.3
2020-Jul-06 23:15 112 0 gusting 5 18.3
2020-Jul-06 23:05 067 1 gusting 5 18.3
2020-Jul-06 22:55 18.9
2020-Jul-06 22:45 112 0 gusting 3 18.3
2020-Jul-06 22:35 045 1 gusting 6 18.3
2020-Jul-06 22:25 090 2 gusting 6 18.3
2020-Jul-06 22:15 112 0 gusting 3 18.3
2020-Jul-06 22:05 090 0 gusting 4 18.3
2020-Jul-06 21:55 090 1 gusting 3 18.9
2020-Jul-06 21:45 090 2 gusting 6 18.9
2020-Jul-06 21:35 090 1 gusting 4 19.4
2020-Jul-06 21:25 135 1 gusting 4 19.4
2020-Jul-06 21:15 090 3 gusting 8 19.4
2020-Jul-06 21:05 090 1 gusting 4 20.0
2020-Jul-06 20:55 225 1 gusting 3 19.4
2020-Jul-06 20:45 090 2 gusting 5 18.9
2020-Jul-06 20:35 045 1 gusting 6 19.4
2020-Jul-06 20:25 022 1 gusting 5 18.3
2020-Jul-06 20:15 315 1 gusting 4 18.9
2020-Jul-06 20:05 045 2 gusting 5 18.9
2020-Jul-06 19:55 045 2 gusting 5 18.3
2020-Jul-06 19:45 045 2 gusting 6 18.3
2020-Jul-06 19:35 022 3 gusting 6 17.8
2020-Jul-06 19:25 090 2 gusting 5 18.3
2020-Jul-06 19:15 022 3 gusting 6 18.3
2020-Jul-06 19:05 090 2 gusting 6 18.3
2020-Jul-06 18:55 045 3 gusting 6 17.8
2020-Jul-06 18:45 090 3 gusting 7 18.3
2020-Jul-06 18:35 067 2 gusting 4 17.8
2020-Jul-06 18:25 337 2 gusting 6 17.8
2020-Jul-06 18:15 067 2 gusting 6 17.2
2020-Jul-06 18:05 045 2 gusting 5 17.2
2020-Jul-06 17:55 045 0 gusting 3 17.2
2020-Jul-06 17:45 022 2 gusting 5 16.7
2020-Jul-06 17:35 045 1 gusting 3 16.1
2020-Jul-06 17:25 045 1 gusting 5 16.1
2020-Jul-06 17:15 045 2 gusting 4 16.1
2020-Jul-06 17:05 022 1 gusting 4 16.7
2020-Jul-06 16:55 045 2 gusting 6 16.7
2020-Jul-06 16:45 090 2 gusting 3 16.1
2020-Jul-06 16:35 022 1 gusting 4 16.1
2020-Jul-06 16:25 090 1 gusting 4 16.1
2020-Jul-06 16:15 045 1 gusting 3 16.1
2020-Jul-06 16:05 045 1 gusting 3 16.7
2020-Jul-06 15:55 022 1 gusting 5 16.7
2020-Jul-06 15:45 022 2 gusting 4 16.1
2020-Jul-06 15:35 315 1 gusting 3 16.1
2020-Jul-06 15:25 022 1 gusting 3 15.6
2020-Jul-06 15:15 315 0 gusting 4 15.6
2020-Jul-06 15:05 022 1 gusting 3 15.6
2020-Jul-06 14:55 337 0 gusting 3 15.0
2020-Jul-06 14:45 045 0 gusting 2 15.0
2020-Jul-06 14:35 045 1 gusting 3 15.0
2020-Jul-06 14:25 15.0
2020-Jul-06 14:15 14.4
2020-Jul-06 14:05 14.4
2020-Jul-06 13:55 13.9
2020-Jul-06 13:45 13.3
2020-Jul-06 13:35 13.3
2020-Jul-06 13:25 12.8
2020-Jul-06 13:15 12.8
2020-Jul-06 13:05 12.8
2020-Jul-06 12:55 12.8
2020-Jul-06 12:45 12.8
2020-Jul-06 12:35 12.8
2020-Jul-06 12:25 12.8
2020-Jul-06 12:15 12.8
2020-Jul-06 12:05 12.8
2020-Jul-06 11:55 12.8
2020-Jul-06 11:45 12.8
2020-Jul-06 11:35 13.3
2020-Jul-06 11:25 13.3
2020-Jul-06 11:15 13.3
2020-Jul-06 11:05 13.3
2020-Jul-06 10:55 13.3
2020-Jul-06 10:45 13.3
2020-Jul-06 10:35 13.3
2020-Jul-06 10:25 13.3
2020-Jul-06 10:15 13.3
2020-Jul-06 10:05 13.3
2020-Jul-06 09:55 13.9
2020-Jul-06 09:45 13.3
2020-Jul-06 09:35 13.3
2020-Jul-06 09:25 13.3
2020-Jul-06 09:15 13.3
2020-Jul-06 09:05 13.9
2020-Jul-06 08:55 13.3
2020-Jul-06 08:45 13.9
2020-Jul-06 08:35 13.3
2020-Jul-06 08:25 12.8
2020-Jul-06 08:15 12.8
2020-Jul-06 08:05 12.8
2020-Jul-06 07:55 12.8
2020-Jul-06 07:45 12.8
2020-Jul-06 07:35 12.8
2020-Jul-06 07:25 12.8
2020-Jul-06 07:15 12.8
2020-Jul-06 07:05 13.3
2020-Jul-06 06:55 13.3
2020-Jul-06 06:45 13.3
2020-Jul-06 06:35 13.3
2020-Jul-06 06:25 13.3
2020-Jul-06 06:15 13.9
2020-Jul-06 06:05 13.9
2020-Jul-06 05:55 13.9
2020-Jul-06 05:45 13.9
2020-Jul-06 05:35 14.4
2020-Jul-06 05:25 14.4
2020-Jul-06 05:15 14.4
2020-Jul-06 05:05 15.0